Capt E. Frank Thompson — WDG2784 — position and weather

sailwx.info

Track history (hours):
 
Tides and Currents Weather Stations Pressure Air Temp Water Temp Dewpoint Dewpoint Depression Visibility Wind Speed Wind Dir Waves Ship Positions

Capt E. Frank Thompson

Owner: Maine Dept. of Transportation/Ferry Service, Rockland, ME. More information available from US FCC via Universal Licensing System and Coast Guard Vessel Documentation Center.

Last reported at 2017-Sep-25 11:29 UTC. Time now 2017-Sep-25 11:42 UTC.
Position N 44°06' W 068°60'.

Length 47 m.

Type: Passenger vessel. MMSI: 367519240.

Date/timePositionNaut miles runAvg speedWind from/ knotsBaromVisibWave heightAir tempDewpointWater temp
2017-Sep-25 11:29N 44°06' W 068°60'3 0.2
2017-Sep-24 21:25N 44°06' W 069°04'511.7
2017-Sep-24 20:59N 44°05' W 068°57'4 3.0
2017-Sep-24 19:47N 44°03' W 068°52'412.1
2017-Sep-24 19:27N 44°05' W 068°57'4 2.2
2017-Sep-24 17:50N 44°06' W 069°02'611.9
2017-Sep-24 17:22N 44°04' W 068°54'3 1.4
2017-Sep-24 15:31N 44°03' W 068°51'211.6
2017-Sep-24 15:23N 44°04' W 068°53'811.7
2017-Sep-24 14:41N 44°06' W 069°04'2 1.9
2017-Sep-24 13:51N 44°06' W 069°06'611.3
2017-Sep-24 13:18N 44°05' W 068°57'2 1.6
2017-Sep-24 11:50N 44°04' W 068°55'511.2
2017-Sep-24 11:21N 44°06' W 069°01'3 0.2
2017-Sep-23 21:32N 44°06' W 069°05'011.5
2017-Sep-23 21:29N 44°06' W 069°05'611.9
2017-Sep-23 20:57N 44°05' W 068°56'3 2.2
2017-Sep-23 19:43N 44°03' W 068°53'10 0.2
2017-Sep-21 21:52N 44°06' W 069°06'1 3.7
2017-Sep-21 21:29N 44°06' W 069°05'611.7
2017-Sep-21 21:00N 44°05' W 068°57'4 3.8
2017-Sep-21 19:51N 44°03' W 068°52'411.9
2017-Sep-21 19:29N 44°05' W 068°57'7 7.3
2017-Sep-21 18:30N 44°06' W 069°06'4 6.6
2017-Sep-21 17:51N 44°06' W 069°00'511.1
2017-Sep-21 17:25N 44°04' W 068°54'2 1.6
2017-Sep-21 15:53N 44°03' W 068°52'511.6
2017-Sep-21 15:29N 44°05' W 068°57'6 3.9
2017-Sep-21 13:53N 44°06' W 069°05'511.7
2017-Sep-21 13:27N 44°06' W 068°58'6 5.1
2017-Sep-21 12:13N 44°02' W 068°51'310.8
2017-Sep-21 11:58N 44°04' W 068°54'511.1
2017-Sep-21 11:30N 44°06' W 069°01'0 0.0
2017-Sep-20 21:12N 44°06' W 068°60'211.9
2017-Sep-20 21:00N 44°05' W 068°57'4 2.8
2017-Sep-20 19:44N 44°03' W 068°52'412.1
2017-Sep-20 19:26N 44°05' W 068°57'7 6.0
2017-Sep-20 18:14N 44°06' W 069°06'3 9.3
2017-Sep-20 17:57N 44°06' W 069°03'511.2
2017-Sep-20 17:28N 44°04' W 068°55'4 1.8
2017-Sep-20 15:32N 44°03' W 068°51'211.4
2017-Sep-20 15:23N 44°04' W 068°53'511.9
2017-Sep-20 14:58N 44°06' W 068°60'4 3.9
2017-Sep-20 13:51N 44°06' W 069°06'411.8
2017-Sep-20 13:30N 44°06' W 068°60'7 5.4
2017-Sep-20 12:08N 44°02' W 068°51'211.4
2017-Sep-20 11:59N 44°03' W 068°53'611.5
2017-Sep-20 11:27N 44°06' W 069°01'2 0.1
2017-Sep-19 21:03N 44°05' W 068°58'112.3
2017-Sep-19 20:56N 44°05' W 068°56'3 2.7
2017-Sep-19 19:44N 44°03' W 068°52'411.8
2017-Sep-19 19:25N 44°05' W 068°57'512.1
2017-Sep-19 18:58N 44°06' W 069°04'1 1.0
2017-Sep-19 18:05N 44°06' W 069°05'312.2
2017-Sep-19 17:52N 44°06' W 069°02'411.3
2017-Sep-19 17:30N 44°05' W 068°56'3 1.5
2017-Sep-19 15:27N 44°03' W 068°53'711.8
2017-Sep-19 14:50N 44°06' W 069°02'3 3.0
2017-Sep-19 13:53N 44°06' W 069°06'410.4
2017-Sep-19 13:27N 44°06' W 069°00'5 3.5
2017-Sep-19 11:56N 44°04' W 068°53'711.1
2017-Sep-19 11:19N 44°06' W 069°02'3 9.1
2017-Sep-19 10:58N 44°06' W 069°06'0 0.0
2017-Sep-18 21:45N 44°06' W 069°06'1 3.6
2017-Sep-18 21:30N 44°06' W 069°05'612.2
2017-Sep-18 20:58N 44°05' W 068°56'5 4.5
2017-Sep-18 19:54N 44°02' W 068°51'410.8
2017-Sep-18 19:30N 44°05' W 068°56'611.4
2017-Sep-18 19:00N 44°06' W 069°04'2 2.8
2017-Sep-18 18:16N 44°06' W 069°06'3 9.0
2017-Sep-18 17:55N 44°06' W 069°02'510.9
2017-Sep-18 17:30N 44°05' W 068°56'4 2.6
2017-Sep-18 15:50N 44°02' W 068°51'411.4
2017-Sep-18 15:30N 44°04' W 068°55'612.1
2017-Sep-18 15:00N 44°06' W 069°03'2 2.1
2017-Sep-18 13:59N 44°06' W 069°06'510.4
2017-Sep-18 13:30N 44°06' W 068°59'7 5.0
2017-Sep-18 12:09N 44°02' W 068°51'311.4
2017-Sep-18 11:56N 44°04' W 068°54'511.7
2017-Sep-18 11:29N 44°06' W 069°01'3 0.2
2017-Sep-17 21:29N 44°06' W 069°05'612.0
2017-Sep-17 21:00N 44°05' W 068°57'4 3.3
2017-Sep-17 19:46N 44°03' W 068°52'311.2
2017-Sep-17 19:30N 44°04' W 068°55'811.5
2017-Sep-17 18:49N 44°06' W 069°06'1 1.7
2017-Sep-17 17:59N 44°06' W 069°04'611.8
2017-Sep-17 17:30N 44°05' W 068°57'2 0.8
2017-Sep-17 15:17N 44°04' W 068°54'512.2
2017-Sep-17 14:53N 44°06' W 069°01'4 7.3
2017-Sep-17 14:19N 44°06' W 069°06'0 0.1
2017-Sep-17 13:57N 44°06' W 069°06'510.4
2017-Sep-17 13:25N 44°06' W 068°59'511.4
2017-Sep-17 12:59N 44°03' W 068°53'2 2.0
2017-Sep-17 12:05N 44°02' W 068°51'1 9.8
2017-Sep-17 12:00N 44°03' W 068°52'611.7
2017-Sep-17 11:29N 44°06' W 068°59'5 0.4
2017-Sep-16 21:39N 44°06' W 069°06'4 9.7
2017-Sep-16 21:15N 44°06' W 069°01'312.0
2017-Sep-16 20:57N 44°05' W 068°56'3 2.6
2017-Sep-16 19:42N 44°03' W 068°53'311.2
2017-Sep-16 19:25N 44°05' W 068°56'512.3
2017-Sep-16 19:00N 44°06' W 069°03'2 2.7
2017-Sep-16 18:12N 44°06' W 069°06'2 8.2
2017-Sep-16 17:56N 44°06' W 069°03'611.9
2017-Sep-16 17:27N 44°05' W 068°56'3 1.5
2017-Sep-16 15:29N 44°03' W 068°52'811.7
2017-Sep-16 14:48N 44°06' W 069°03'3 3.3
2017-Sep-16 13:58N 44°06' W 069°06'4 9.4
2017-Sep-16 13:30N 44°06' W 069°00'611.4
2017-Sep-16 12:57N 44°03' W 068°53'2 1.6
2017-Sep-16 11:47N 44°04' W 068°55'411.8
2017-Sep-16 11:26N 44°06' W 069°00'4 0.3
2017-Sep-15 21:34N 44°06' W 069°06'110.0
2017-Sep-15 21:25N 44°06' W 069°04'612.1
2017-Sep-15 20:58N 44°05' W 068°56'0 0.2
2017-Sep-15 19:28N 44°05' W 068°56'611.9
2017-Sep-15 18:57N 44°06' W 069°04'2 2.1
2017-Sep-15 18:11N 44°06' W 069°06'1 6.6
2017-Sep-15 17:58N 44°06' W 069°04'612.2
2017-Sep-15 17:30N 44°05' W 068°57'5 2.7
2017-Sep-15 15:36N 44°02' W 068°51'111.4
2017-Sep-15 15:28N 44°03' W 068°53'712.1
2017-Sep-15 14:56N 44°06' W 069°01'4 3.7
2017-Sep-15 13:53N 44°06' W 069°06'711.2
2017-Sep-15 13:15N 44°05' W 068°56'5 4.3
2017-Sep-15 12:10N 44°02' W 068°51'313.4
2017-Sep-15 11:57N 44°04' W 068°54'  
Track history (hours):
 
Tides and Currents Weather Stations Pressure Air Temp Water Temp Dewpoint Dewpoint Depression Visibility Wind Speed Wind Dir Waves Ship Positions

Capt E. Frank Thompson

Owner: Maine Dept. of Transportation/Ferry Service, Rockland, ME. More information available from US FCC via Universal Licensing System and Coast Guard Vessel Documentation Center.

Last reported at 2017-Sep-25 11:29 UTC. Time now 2017-Sep-25 11:42 UTC.
Position N 44°06' W 068°60'.

Length 47 m.

Type: Passenger vessel. MMSI: 367519240.

Date/timePositionNaut miles runAvg speedWind from/ knotsBaromVisibWave heightAir tempDewpointWater temp
2017-Sep-25 11:29N 44°06' W 068°60'3 0.2
2017-Sep-24 21:25N 44°06' W 069°04'511.7
2017-Sep-24 20:59N 44°05' W 068°57'4 3.0
2017-Sep-24 19:47N 44°03' W 068°52'412.1
2017-Sep-24 19:27N 44°05' W 068°57'4 2.2
2017-Sep-24 17:50N 44°06' W 069°02'611.9
2017-Sep-24 17:22N 44°04' W 068°54'3 1.4
2017-Sep-24 15:31N 44°03' W 068°51'211.6
2017-Sep-24 15:23N 44°04' W 068°53'811.7
2017-Sep-24 14:41N 44°06' W 069°04'2 1.9
2017-Sep-24 13:51N 44°06' W 069°06'611.3
2017-Sep-24 13:18N 44°05' W 068°57'2 1.6
2017-Sep-24 11:50N 44°04' W 068°55'511.2
2017-Sep-24 11:21N 44°06' W 069°01'3 0.2
2017-Sep-23 21:32N 44°06' W 069°05'011.5
2017-Sep-23 21:29N 44°06' W 069°05'611.9
2017-Sep-23 20:57N 44°05' W 068°56'3 2.2
2017-Sep-23 19:43N 44°03' W 068°53'10 0.2
2017-Sep-21 21:52N 44°06' W 069°06'1 3.7
2017-Sep-21 21:29N 44°06' W 069°05'611.7
2017-Sep-21 21:00N 44°05' W 068°57'4 3.8
2017-Sep-21 19:51N 44°03' W 068°52'411.9
2017-Sep-21 19:29N 44°05' W 068°57'7 7.3
2017-Sep-21 18:30N 44°06' W 069°06'4 6.6
2017-Sep-21 17:51N 44°06' W 069°00'511.1
2017-Sep-21 17:25N 44°04' W 068°54'2 1.6
2017-Sep-21 15:53N 44°03' W 068°52'511.6
2017-Sep-21 15:29N 44°05' W 068°57'6 3.9
2017-Sep-21 13:53N 44°06' W 069°05'511.7
2017-Sep-21 13:27N 44°06' W 068°58'6 5.1
2017-Sep-21 12:13N 44°02' W 068°51'310.8
2017-Sep-21 11:58N 44°04' W 068°54'511.1
2017-Sep-21 11:30N 44°06' W 069°01'0 0.0
2017-Sep-20 21:12N 44°06' W 068°60'211.9
2017-Sep-20 21:00N 44°05' W 068°57'4 2.8
2017-Sep-20 19:44N 44°03' W 068°52'412.1
2017-Sep-20 19:26N 44°05' W 068°57'7 6.0
2017-Sep-20 18:14N 44°06' W 069°06'3 9.3
2017-Sep-20 17:57N 44°06' W 069°03'511.2
2017-Sep-20 17:28N 44°04' W 068°55'4 1.8
2017-Sep-20 15:32N 44°03' W 068°51'211.4
2017-Sep-20 15:23N 44°04' W 068°53'511.9
2017-Sep-20 14:58N 44°06' W 068°60'4 3.9
2017-Sep-20 13:51N 44°06' W 069°06'411.8
2017-Sep-20 13:30N 44°06' W 068°60'7 5.4
2017-Sep-20 12:08N 44°02' W 068°51'211.4
2017-Sep-20 11:59N 44°03' W 068°53'611.5
2017-Sep-20 11:27N 44°06' W 069°01'2 0.1
2017-Sep-19 21:03N 44°05' W 068°58'112.3
2017-Sep-19 20:56N 44°05' W 068°56'3 2.7
2017-Sep-19 19:44N 44°03' W 068°52'411.8
2017-Sep-19 19:25N 44°05' W 068°57'512.1
2017-Sep-19 18:58N 44°06' W 069°04'1 1.0
2017-Sep-19 18:05N 44°06' W 069°05'312.2
2017-Sep-19 17:52N 44°06' W 069°02'411.3
2017-Sep-19 17:30N 44°05' W 068°56'3 1.5
2017-Sep-19 15:27N 44°03' W 068°53'711.8
2017-Sep-19 14:50N 44°06' W 069°02'3 3.0
2017-Sep-19 13:53N 44°06' W 069°06'410.4
2017-Sep-19 13:27N 44°06' W 069°00'5 3.5
2017-Sep-19 11:56N 44°04' W 068°53'711.1
2017-Sep-19 11:19N 44°06' W 069°02'3 9.1
2017-Sep-19 10:58N 44°06' W 069°06'0 0.0
2017-Sep-18 21:45N 44°06' W 069°06'1 3.6
2017-Sep-18 21:30N 44°06' W 069°05'612.2
2017-Sep-18 20:58N 44°05' W 068°56'5 4.5
2017-Sep-18 19:54N 44°02' W 068°51'410.8
2017-Sep-18 19:30N 44°05' W 068°56'611.4
2017-Sep-18 19:00N 44°06' W 069°04'2 2.8
2017-Sep-18 18:16N 44°06' W 069°06'3 9.0
2017-Sep-18 17:55N 44°06' W 069°02'510.9
2017-Sep-18 17:30N 44°05' W 068°56'4 2.6
2017-Sep-18 15:50N 44°02' W 068°51'411.4
2017-Sep-18 15:30N 44°04' W 068°55'612.1
2017-Sep-18 15:00N 44°06' W 069°03'2 2.1
2017-Sep-18 13:59N 44°06' W 069°06'510.4
2017-Sep-18 13:30N 44°06' W 068°59'7 5.0
2017-Sep-18 12:09N 44°02' W 068°51'311.4
2017-Sep-18 11:56N 44°04' W 068°54'511.7
2017-Sep-18 11:29N 44°06' W 069°01'3 0.2
2017-Sep-17 21:29N 44°06' W 069°05'612.0
2017-Sep-17 21:00N 44°05' W 068°57'4 3.3
2017-Sep-17 19:46N 44°03' W 068°52'311.2
2017-Sep-17 19:30N 44°04' W 068°55'811.5
2017-Sep-17 18:49N 44°06' W 069°06'1 1.7
2017-Sep-17 17:59N 44°06' W 069°04'611.8
2017-Sep-17 17:30N 44°05' W 068°57'2 0.8
2017-Sep-17 15:17N 44°04' W 068°54'512.2
2017-Sep-17 14:53N 44°06' W 069°01'4 7.3
2017-Sep-17 14:19N 44°06' W 069°06'0 0.1
2017-Sep-17 13:57N 44°06' W 069°06'510.4
2017-Sep-17 13:25N 44°06' W 068°59'511.4
2017-Sep-17 12:59N 44°03' W 068°53'2 2.0
2017-Sep-17 12:05N 44°02' W 068°51'1 9.8
2017-Sep-17 12:00N 44°03' W 068°52'611.7
2017-Sep-17 11:29N 44°06' W 068°59'5 0.4
2017-Sep-16 21:39N 44°06' W 069°06'4 9.7
2017-Sep-16 21:15N 44°06' W 069°01'312.0
2017-Sep-16 20:57N 44°05' W 068°56'3 2.6
2017-Sep-16 19:42N 44°03' W 068°53'311.2
2017-Sep-16 19:25N 44°05' W 068°56'512.3
2017-Sep-16 19:00N 44°06' W 069°03'2 2.7
2017-Sep-16 18:12N 44°06' W 069°06'2 8.2
2017-Sep-16 17:56N 44°06' W 069°03'611.9
2017-Sep-16 17:27N 44°05' W 068°56'3 1.5
2017-Sep-16 15:29N 44°03' W 068°52'811.7
2017-Sep-16 14:48N 44°06' W 069°03'3 3.3
2017-Sep-16 13:58N 44°06' W 069°06'4 9.4
2017-Sep-16 13:30N 44°06' W 069°00'611.4
2017-Sep-16 12:57N 44°03' W 068°53'2 1.6
2017-Sep-16 11:47N 44°04' W 068°55'411.8
2017-Sep-16 11:26N 44°06' W 069°00'4 0.3
2017-Sep-15 21:34N 44°06' W 069°06'110.0
2017-Sep-15 21:25N 44°06' W 069°04'612.1
2017-Sep-15 20:58N 44°05' W 068°56'0 0.2
2017-Sep-15 19:28N 44°05' W 068°56'611.9
2017-Sep-15 18:57N 44°06' W 069°04'2 2.1
2017-Sep-15 18:11N 44°06' W 069°06'1 6.6
2017-Sep-15 17:58N 44°06' W 069°04'612.2
2017-Sep-15 17:30N 44°05' W 068°57'5 2.7
2017-Sep-15 15:36N 44°02' W 068°51'111.4
2017-Sep-15 15:28N 44°03' W 068°53'712.1
2017-Sep-15 14:56N 44°06' W 069°01'4 3.7
2017-Sep-15 13:53N 44°06' W 069°06'711.2
2017-Sep-15 13:15N 44°05' W 068°56'5 4.3
2017-Sep-15 12:10N 44°02' W 068°51'313.4
2017-Sep-15 11:57N 44°04' W 068°54'  

Dump ship's entire track history